sensor_id;sensor_type;location;lat;lon;timestamp;P1;durP1;ratioP1;P2;durP2;ratioP2
33993;SDS011;20673;48.980;8.138;2023-08-17T00:00:42;2.92;;;2.58;;
33993;SDS011;20673;48.980;8.138;2023-08-17T00:03:08;3.08;;;2.77;;
33993;SDS011;20673;48.980;8.138;2023-08-17T00:05:34;4.47;;;2.55;;
33993;SDS011;20673;48.980;8.138;2023-08-17T00:08:01;4.73;;;3.13;;
33993;SDS011;20673;48.980;8.138;2023-08-17T00:10:28;4.03;;;2.80;;
33993;SDS011;20673;48.980;8.138;2023-08-17T00:12:54;3.65;;;2.60;;
33993;SDS011;20673;48.980;8.138;2023-08-17T00:15:20;3.40;;;2.57;;
33993;SDS011;20673;48.980;8.138;2023-08-17T00:17:47;3.80;;;2.33;;
33993;SDS011;20673;48.980;8.138;2023-08-17T00:20:13;2.80;;;2.20;;
33993;SDS011;20673;48.980;8.138;2023-08-17T00:22:39;4.53;;;3.20;;
33993;SDS011;20673;48.980;8.138;2023-08-17T00:25:05;4.05;;;2.60;;
33993;SDS011;20673;48.980;8.138;2023-08-17T00:27:33;4.00;;;3.55;;
33993;SDS011;20673;48.980;8.138;2023-08-17T00:29:59;3.52;;;2.77;;
33993;SDS011;20673;48.980;8.138;2023-08-17T00:32:25;6.08;;;2.87;;
33993;SDS011;20673;48.980;8.138;2023-08-17T00:34:51;3.43;;;3.00;;
33993;SDS011;20673;48.980;8.138;2023-08-17T00:37:17;5.35;;;3.52;;
33993;SDS011;20673;48.980;8.138;2023-08-17T00:39:43;4.97;;;3.50;;
33993;SDS011;20673;48.980;8.138;2023-08-17T00:42:09;6.47;;;3.40;;
33993;SDS011;20673;48.980;8.138;2023-08-17T00:44:36;4.05;;;3.02;;
33993;SDS011;20673;48.980;8.138;2023-08-17T00:47:02;3.87;;;3.47;;
33993;SDS011;20673;48.980;8.138;2023-08-17T00:49:30;2.80;;;2.43;;
33993;SDS011;20673;48.980;8.138;2023-08-17T00:51:57;4.47;;;2.77;;
33993;SDS011;20673;48.980;8.138;2023-08-17T00:54:24;5.47;;;4.15;;
33993;SDS011;20673;48.980;8.138;2023-08-17T00:56:52;4.47;;;4.00;;
33993;SDS011;20673;48.980;8.138;2023-08-17T00:59:21;5.67;;;4.28;;
33993;SDS011;20673;48.980;8.138;2023-08-17T01:01:49;5.45;;;4.17;;
33993;SDS011;20673;48.980;8.138;2023-08-17T01:04:15;4.97;;;3.70;;
33993;SDS011;20673;48.980;8.138;2023-08-17T01:06:41;4.60;;;3.23;;
33993;SDS011;20673;48.980;8.138;2023-08-17T01:09:08;5.20;;;3.50;;
33993;SDS011;20673;48.980;8.138;2023-08-17T01:11:41;9.05;;;3.15;;
33993;SDS011;20673;48.980;8.138;2023-08-17T01:14:31;8.43;;;3.83;;
33993;SDS011;20673;48.980;8.138;2023-08-17T01:17:27;4.07;;;3.70;;
33993;SDS011;20673;48.980;8.138;2023-08-17T01:19:40;4.00;;;3.60;;
33993;SDS011;20673;48.980;8.138;2023-08-17T01:22:08;5.17;;;3.63;;
33993;SDS011;20673;48.980;8.138;2023-08-17T01:24:38;3.58;;;2.83;;
33993;SDS011;20673;48.980;8.138;2023-08-17T01:27:04;4.17;;;2.90;;
33993;SDS011;20673;48.980;8.138;2023-08-17T01:29:30;3.23;;;2.90;;
33993;SDS011;20673;48.980;8.138;2023-08-17T01:34:54;5.67;;;3.50;;
33993;SDS011;20673;48.980;8.138;2023-08-17T01:37:26;5.67;;;3.30;;
33993;SDS011;20673;48.980;8.138;2023-08-17T01:39:57;4.45;;;3.20;;
33993;SDS011;20673;48.980;8.138;2023-08-17T01:42:24;3.70;;;3.20;;
33993;SDS011;20673;48.980;8.138;2023-08-17T01:44:52;7.13;;;4.00;;
33993;SDS011;20673;48.980;8.138;2023-08-17T01:47:21;4.45;;;3.25;;
33993;SDS011;20673;48.980;8.138;2023-08-17T01:49:48;3.60;;;3.10;;
33993;SDS011;20673;48.980;8.138;2023-08-17T01:52:14;3.47;;;2.97;;
33993;SDS011;20673;48.980;8.138;2023-08-17T01:54:40;4.53;;;3.20;;
33993;SDS011;20673;48.980;8.138;2023-08-17T01:57:06;4.07;;;3.17;;
33993;SDS011;20673;48.980;8.138;2023-08-17T01:59:33;6.63;;;3.43;;
33993;SDS011;20673;48.980;8.138;2023-08-17T02:01:59;3.92;;;3.52;;
33993;SDS011;20673;48.980;8.138;2023-08-17T02:04:25;4.53;;;3.35;;
33993;SDS011;20673;48.980;8.138;2023-08-17T02:06:51;5.75;;;3.35;;
33993;SDS011;20673;48.980;8.138;2023-08-17T02:09:17;5.23;;;2.97;;
33993;SDS011;20673;48.980;8.138;2023-08-17T02:11:43;3.17;;;2.87;;
33993;SDS011;20673;48.980;8.138;2023-08-17T02:14:09;3.50;;;3.20;;
33993;SDS011;20673;48.980;8.138;2023-08-17T02:16:35;8.40;;;3.57;;
33993;SDS011;20673;48.980;8.138;2023-08-17T02:19:01;6.50;;;4.37;;
33993;SDS011;20673;48.980;8.138;2023-08-17T02:21:27;8.13;;;4.03;;
33993;SDS011;20673;48.980;8.138;2023-08-17T02:23:53;5.30;;;3.90;;
33993;SDS011;20673;48.980;8.138;2023-08-17T02:26:19;5.13;;;3.70;;
33993;SDS011;20673;48.980;8.138;2023-08-17T02:28:45;5.25;;;4.45;;
33993;SDS011;20673;48.980;8.138;2023-08-17T02:31:11;9.57;;;4.87;;
33993;SDS011;20673;48.980;8.138;2023-08-17T02:33:37;7.07;;;5.23;;
33993;SDS011;20673;48.980;8.138;2023-08-17T02:36:04;5.05;;;4.55;;
33993;SDS011;20673;48.980;8.138;2023-08-17T02:38:30;7.78;;;5.37;;
33993;SDS011;20673;48.980;8.138;2023-08-17T02:40:57;6.43;;;5.57;;
33993;SDS011;20673;48.980;8.138;2023-08-17T02:43:23;9.27;;;5.57;;
33993;SDS011;20673;48.980;8.138;2023-08-17T02:45:49;7.47;;;4.95;;
33993;SDS011;20673;48.980;8.138;2023-08-17T02:48:15;7.90;;;5.35;;
33993;SDS011;20673;48.980;8.138;2023-08-17T02:50:41;9.00;;;6.10;;
33993;SDS011;20673;48.980;8.138;2023-08-17T02:53:07;7.45;;;5.40;;
33993;SDS011;20673;48.980;8.138;2023-08-17T02:55:33;6.50;;;5.13;;
33993;SDS011;20673;48.980;8.138;2023-08-17T02:57:59;7.43;;;6.30;;
33993;SDS011;20673;48.980;8.138;2023-08-17T03:00:25;9.90;;;5.77;;
33993;SDS011;20673;48.980;8.138;2023-08-17T03:02:51;7.83;;;5.37;;
33993;SDS011;20673;48.980;8.138;2023-08-17T03:05:18;7.57;;;5.33;;
33993;SDS011;20673;48.980;8.138;2023-08-17T03:07:44;9.95;;;5.75;;
33993;SDS011;20673;48.980;8.138;2023-08-17T03:10:10;8.53;;;6.70;;
33993;SDS011;20673;48.980;8.138;2023-08-17T03:12:37;7.43;;;6.07;;
33993;SDS011;20673;48.980;8.138;2023-08-17T03:15:05;8.33;;;6.62;;
33993;SDS011;20673;48.980;8.138;2023-08-17T03:17:32;7.87;;;6.10;;
33993;SDS011;20673;48.980;8.138;2023-08-17T03:19:58;8.57;;;5.90;;
33993;SDS011;20673;48.980;8.138;2023-08-17T03:22:25;10.00;;;5.83;;
33993;SDS011;20673;48.980;8.138;2023-08-17T03:24:51;8.45;;;5.87;;
33993;SDS011;20673;48.980;8.138;2023-08-17T03:27:22;9.97;;;5.80;;
33993;SDS011;20673;48.980;8.138;2023-08-17T03:29:50;9.00;;;5.47;;
33993;SDS011;20673;48.980;8.138;2023-08-17T03:32:17;9.60;;;6.60;;
33993;SDS011;20673;48.980;8.138;2023-08-17T03:34:43;7.17;;;5.63;;
33993;SDS011;20673;48.980;8.138;2023-08-17T03:37:09;9.20;;;5.23;;
33993;SDS011;20673;48.980;8.138;2023-08-17T03:39:35;8.38;;;5.55;;
33993;SDS011;20673;48.980;8.138;2023-08-17T03:42:01;10.08;;;6.28;;
33993;SDS011;20673;48.980;8.138;2023-08-17T03:44:27;7.97;;;5.70;;
33993;SDS011;20673;48.980;8.138;2023-08-17T03:46:53;8.73;;;6.45;;
33993;SDS011;20673;48.980;8.138;2023-08-17T03:49:19;6.03;;;5.30;;
33993;SDS011;20673;48.980;8.138;2023-08-17T03:51:45;6.57;;;5.67;;
33993;SDS011;20673;48.980;8.138;2023-08-17T03:54:14;7.63;;;6.33;;
33993;SDS011;20673;48.980;8.138;2023-08-17T03:56:40;9.18;;;6.30;;
33993;SDS011;20673;48.980;8.138;2023-08-17T03:59:06;9.57;;;5.70;;
33993;SDS011;20673;48.980;8.138;2023-08-17T04:01:33;9.68;;;6.50;;
33993;SDS011;20673;48.980;8.138;2023-08-17T04:03:59;9.65;;;6.17;;
33993;SDS011;20673;48.980;8.138;2023-08-17T04:06:25;7.60;;;5.77;;
33993;SDS011;20673;48.980;8.138;2023-08-17T04:08:51;6.83;;;5.90;;
33993;SDS011;20673;48.980;8.138;2023-08-17T04:11:17;9.50;;;5.90;;
33993;SDS011;20673;48.980;8.138;2023-08-17T04:13:43;8.80;;;6.07;;
33993;SDS011;20673;48.980;8.138;2023-08-17T04:16:09;9.47;;;6.40;;
33993;SDS011;20673;48.980;8.138;2023-08-17T04:18:35;9.05;;;6.28;;
33993;SDS011;20673;48.980;8.138;2023-08-17T04:21:01;9.43;;;6.40;;
33993;SDS011;20673;48.980;8.138;2023-08-17T04:23:27;8.87;;;6.03;;
33993;SDS011;20673;48.980;8.138;2023-08-17T04:25:53;7.27;;;5.20;;
33993;SDS011;20673;48.980;8.138;2023-08-17T04:28:20;9.70;;;5.10;;
33993;SDS011;20673;48.980;8.138;2023-08-17T04:30:46;6.58;;;5.28;;
33993;SDS011;20673;48.980;8.138;2023-08-17T04:33:13;8.98;;;5.87;;
33993;SDS011;20673;48.980;8.138;2023-08-17T04:35:39;10.87;;;5.30;;
33993;SDS011;20673;48.980;8.138;2023-08-17T04:38:05;7.70;;;5.73;;
33993;SDS011;20673;48.980;8.138;2023-08-17T04:40:32;12.00;;;5.75;;
33993;SDS011;20673;48.980;8.138;2023-08-17T04:42:59;9.18;;;5.15;;
33993;SDS011;20673;48.980;8.138;2023-08-17T04:45:25;8.63;;;5.23;;
33993;SDS011;20673;48.980;8.138;2023-08-17T04:47:51;5.87;;;5.27;;
33993;SDS011;20673;48.980;8.138;2023-08-17T04:50:17;9.50;;;5.72;;
33993;SDS011;20673;48.980;8.138;2023-08-17T04:52:43;8.77;;;5.50;;
33993;SDS011;20673;48.980;8.138;2023-08-17T04:55:10;6.43;;;4.60;;
33993;SDS011;20673;48.980;8.138;2023-08-17T04:57:38;6.67;;;4.87;;
33993;SDS011;20673;48.980;8.138;2023-08-17T05:00:05;6.70;;;5.07;;
33993;SDS011;20673;48.980;8.138;2023-08-17T05:02:35;5.42;;;4.92;;
33993;SDS011;20673;48.980;8.138;2023-08-17T05:05:03;7.08;;;5.33;;
33993;SDS011;20673;48.980;8.138;2023-08-17T05:07:31;5.60;;;4.67;;
33993;SDS011;20673;48.980;8.138;2023-08-17T05:09:57;8.40;;;5.23;;
33993;SDS011;20673;48.980;8.138;2023-08-17T05:12:24;8.70;;;5.57;;
33993;SDS011;20673;48.980;8.138;2023-08-17T05:14:50;10.75;;;5.60;;
33993;SDS011;20673;48.980;8.138;2023-08-17T05:17:16;6.00;;;5.30;;
33993;SDS011;20673;48.980;8.138;2023-08-17T05:19:42;6.62;;;5.03;;
33993;SDS011;20673;48.980;8.138;2023-08-17T05:22:10;6.47;;;4.93;;
33993;SDS011;20673;48.980;8.138;2023-08-17T05:24:38;7.90;;;4.77;;
33993;SDS011;20673;48.980;8.138;2023-08-17T05:27:05;8.37;;;5.80;;
33993;SDS011;20673;48.980;8.138;2023-08-17T05:29:31;8.63;;;5.87;;
33993;SDS011;20673;48.980;8.138;2023-08-17T05:31:57;8.80;;;5.05;;
33993;SDS011;20673;48.980;8.138;2023-08-17T05:34:24;6.70;;;5.10;;
33993;SDS011;20673;48.980;8.138;2023-08-17T05:36:50;6.93;;;4.97;;
33993;SDS011;20673;48.980;8.138;2023-08-17T05:39:16;6.50;;;4.63;;
33993;SDS011;20673;48.980;8.138;2023-08-17T05:41:42;6.40;;;4.83;;
33993;SDS011;20673;48.980;8.138;2023-08-17T05:44:08;7.90;;;4.70;;
33993;SDS011;20673;48.980;8.138;2023-08-17T05:46:35;5.92;;;4.87;;
33993;SDS011;20673;48.980;8.138;2023-08-17T05:49:01;6.28;;;4.60;;
33993;SDS011;20673;48.980;8.138;2023-08-17T05:51:28;4.93;;;4.10;;
33993;SDS011;20673;48.980;8.138;2023-08-17T05:53:54;4.80;;;4.30;;
33993;SDS011;20673;48.980;8.138;2023-08-17T05:56:20;6.00;;;4.43;;
33993;SDS011;20673;48.980;8.138;2023-08-17T05:58:46;7.47;;;4.47;;
33993;SDS011;20673;48.980;8.138;2023-08-17T06:01:13;6.03;;;4.00;;
33993;SDS011;20673;48.980;8.138;2023-08-17T06:03:40;4.50;;;4.07;;
33993;SDS011;20673;48.980;8.138;2023-08-17T06:06:06;6.07;;;3.80;;
33993;SDS011;20673;48.980;8.138;2023-08-17T06:08:32;6.13;;;4.37;;
33993;SDS011;20673;48.980;8.138;2023-08-17T06:10:59;4.30;;;3.90;;
33993;SDS011;20673;48.980;8.138;2023-08-17T06:13:25;6.00;;;4.30;;
33993;SDS011;20673;48.980;8.138;2023-08-17T06:15:51;5.20;;;4.03;;
33993;SDS011;20673;48.980;8.138;2023-08-17T06:18:17;5.23;;;3.70;;
33993;SDS011;20673;48.980;8.138;2023-08-17T06:20:45;4.80;;;3.87;;
33993;SDS011;20673;48.980;8.138;2023-08-17T06:23:13;4.30;;;3.83;;
33993;SDS011;20673;48.980;8.138;2023-08-17T06:25:39;6.77;;;4.13;;
33993;SDS011;20673;48.980;8.138;2023-08-17T06:28:05;4.75;;;3.98;;
33993;SDS011;20673;48.980;8.138;2023-08-17T06:30:32;6.60;;;4.47;;
33993;SDS011;20673;48.980;8.138;2023-08-17T06:32:58;4.95;;;3.60;;
33993;SDS011;20673;48.980;8.138;2023-08-17T06:35:24;5.10;;;3.85;;
33993;SDS011;20673;48.980;8.138;2023-08-17T06:37:50;7.92;;;4.53;;
33993;SDS011;20673;48.980;8.138;2023-08-17T06:40:18;10.63;;;4.37;;
33993;SDS011;20673;48.980;8.138;2023-08-17T06:42:45;4.80;;;3.62;;
33993;SDS011;20673;48.980;8.138;2023-08-17T06:45:11;6.12;;;4.30;;
33993;SDS011;20673;48.980;8.138;2023-08-17T06:47:37;6.08;;;3.85;;
33993;SDS011;20673;48.980;8.138;2023-08-17T06:50:03;7.10;;;3.50;;
33993;SDS011;20673;48.980;8.138;2023-08-17T06:52:30;6.33;;;4.35;;
33993;SDS011;20673;48.980;8.138;2023-08-17T06:54:56;6.13;;;4.07;;
33993;SDS011;20673;48.980;8.138;2023-08-17T06:57:22;6.08;;;3.85;;
33993;SDS011;20673;48.980;8.138;2023-08-17T06:59:48;5.62;;;4.05;;
33993;SDS011;20673;48.980;8.138;2023-08-17T07:02:14;6.60;;;3.83;;
33993;SDS011;20673;48.980;8.138;2023-08-17T07:04:40;7.58;;;3.80;;
33993;SDS011;20673;48.980;8.138;2023-08-17T07:07:06;7.55;;;4.10;;
33993;SDS011;20673;48.980;8.138;2023-08-17T07:09:32;6.00;;;4.15;;
33993;SDS011;20673;48.980;8.138;2023-08-17T07:11:58;7.33;;;4.00;;
33993;SDS011;20673;48.980;8.138;2023-08-17T07:14:24;7.70;;;4.55;;
33993;SDS011;20673;48.980;8.138;2023-08-17T07:16:51;5.78;;;4.40;;
33993;SDS011;20673;48.980;8.138;2023-08-17T07:19:17;10.80;;;4.55;;
33993;SDS011;20673;48.980;8.138;2023-08-17T07:21:43;7.67;;;4.47;;
33993;SDS011;20673;48.980;8.138;2023-08-17T07:24:13;9.15;;;4.58;;
33993;SDS011;20673;48.980;8.138;2023-08-17T07:26:41;6.30;;;4.10;;
33993;SDS011;20673;48.980;8.138;2023-08-17T07:29:07;9.30;;;6.42;;
33993;SDS011;20673;48.980;8.138;2023-08-17T07:31:34;8.28;;;5.40;;
33993;SDS011;20673;48.980;8.138;2023-08-17T07:34:02;8.78;;;6.03;;
33993;SDS011;20673;48.980;8.138;2023-08-17T07:36:28;11.78;;;6.55;;
33993;SDS011;20673;48.980;8.138;2023-08-17T07:38:54;12.43;;;6.60;;
33993;SDS011;20673;48.980;8.138;2023-08-17T07:41:20;13.30;;;7.25;;
33993;SDS011;20673;48.980;8.138;2023-08-17T07:43:46;11.95;;;7.17;;
33993;SDS011;20673;48.980;8.138;2023-08-17T07:46:13;9.40;;;6.65;;
33993;SDS011;20673;48.980;8.138;2023-08-17T07:48:39;10.82;;;7.10;;
33993;SDS011;20673;48.980;8.138;2023-08-17T07:51:05;10.68;;;7.05;;
33993;SDS011;20673;48.980;8.138;2023-08-17T07:53:31;14.45;;;8.23;;
33993;SDS011;20673;48.980;8.138;2023-08-17T07:55:58;11.57;;;7.55;;
33993;SDS011;20673;48.980;8.138;2023-08-17T07:58:24;13.85;;;8.95;;
33993;SDS011;20673;48.980;8.138;2023-08-17T08:00:50;13.00;;;8.25;;
33993;SDS011;20673;48.980;8.138;2023-08-17T08:03:16;13.58;;;9.73;;
33993;SDS011;20673;48.980;8.138;2023-08-17T08:05:42;15.05;;;9.95;;
33993;SDS011;20673;48.980;8.138;2023-08-17T08:08:08;15.93;;;10.30;;
33993;SDS011;20673;48.980;8.138;2023-08-17T08:10:34;15.85;;;10.23;;
33993;SDS011;20673;48.980;8.138;2023-08-17T08:13:01;16.73;;;10.82;;
33993;SDS011;20673;48.980;8.138;2023-08-17T08:15:27;13.60;;;9.83;;
33993;SDS011;20673;48.980;8.138;2023-08-17T08:17:53;18.25;;;10.75;;
33993;SDS011;20673;48.980;8.138;2023-08-17T08:20:19;15.48;;;10.43;;
33993;SDS011;20673;48.980;8.138;2023-08-17T08:22:46;14.93;;;11.18;;
33993;SDS011;20673;48.980;8.138;2023-08-17T08:25:13;15.72;;;11.35;;
33993;SDS011;20673;48.980;8.138;2023-08-17T08:27:39;16.07;;;11.93;;
33993;SDS011;20673;48.980;8.138;2023-08-17T08:30:06;15.70;;;12.53;;
33993;SDS011;20673;48.980;8.138;2023-08-17T08:32:33;16.50;;;12.43;;
33993;SDS011;20673;48.980;8.138;2023-08-17T08:34:59;14.75;;;12.13;;
33993;SDS011;20673;48.980;8.138;2023-08-17T08:37:25;16.25;;;11.57;;
33993;SDS011;20673;48.980;8.138;2023-08-17T08:39:53;17.27;;;12.98;;
33993;SDS011;20673;48.980;8.138;2023-08-17T08:42:23;17.70;;;13.05;;
33993;SDS011;20673;48.980;8.138;2023-08-17T08:44:51;15.15;;;13.55;;
33993;SDS011;20673;48.980;8.138;2023-08-17T08:47:17;17.57;;;13.62;;
33993;SDS011;20673;48.980;8.138;2023-08-17T08:49:49;15.38;;;12.45;;
33993;SDS011;20673;48.980;8.138;2023-08-17T08:52:22;16.67;;;13.48;;
33993;SDS011;20673;48.980;8.138;2023-08-17T08:54:52;16.23;;;12.75;;
33993;SDS011;20673;48.980;8.138;2023-08-17T08:57:23;15.72;;;12.73;;
33993;SDS011;20673;48.980;8.138;2023-08-17T08:59:51;23.52;;;13.80;;
33993;SDS011;20673;48.980;8.138;2023-08-17T09:02:17;14.93;;;12.63;;
33993;SDS011;20673;48.980;8.138;2023-08-17T09:04:44;16.45;;;13.03;;
33993;SDS011;20673;48.980;8.138;2023-08-17T09:07:14;14.38;;;12.28;;
33993;SDS011;20673;48.980;8.138;2023-08-17T09:09:44;14.03;;;12.40;;
33993;SDS011;20673;48.980;8.138;2023-08-17T09:12:11;16.27;;;14.15;;
33993;SDS011;20673;48.980;8.138;2023-08-17T09:14:37;18.50;;;15.45;;
33993;SDS011;20673;48.980;8.138;2023-08-17T09:17:04;16.93;;;15.23;;
33993;SDS011;20673;48.980;8.138;2023-08-17T09:19:33;17.27;;;15.03;;
33993;SDS011;20673;48.980;8.138;2023-08-17T09:22:00;18.17;;;14.93;;
33993;SDS011;20673;48.980;8.138;2023-08-17T09:24:44;16.37;;;14.40;;
33993;SDS011;20673;48.980;8.138;2023-08-17T09:27:02;16.52;;;14.53;;
33993;SDS011;20673;48.980;8.138;2023-08-17T09:29:29;17.10;;;14.28;;
33993;SDS011;20673;48.980;8.138;2023-08-17T09:32:05;16.55;;;14.75;;
33993;SDS011;20673;48.980;8.138;2023-08-17T09:34:32;15.55;;;13.13;;
33993;SDS011;20673;48.980;8.138;2023-08-17T09:37:02;15.85;;;14.20;;
33993;SDS011;20673;48.980;8.138;2023-08-17T09:39:30;19.12;;;14.47;;
33993;SDS011;20673;48.980;8.138;2023-08-17T09:41:57;15.98;;;14.28;;
33993;SDS011;20673;48.980;8.138;2023-08-17T09:44:25;17.40;;;13.98;;
33993;SDS011;20673;48.980;8.138;2023-08-17T09:46:56;17.55;;;15.40;;
33993;SDS011;20673;48.980;8.138;2023-08-17T09:49:25;17.02;;;15.18;;
33993;SDS011;20673;48.980;8.138;2023-08-17T09:51:51;17.17;;;15.10;;
33993;SDS011;20673;48.980;8.138;2023-08-17T09:54:21;17.42;;;14.60;;
33993;SDS011;20673;48.980;8.138;2023-08-17T09:56:52;17.98;;;15.40;;
33993;SDS011;20673;48.980;8.138;2023-08-17T09:59:19;17.70;;;15.00;;
33993;SDS011;20673;48.980;8.138;2023-08-17T10:01:48;15.72;;;14.10;;
33993;SDS011;20673;48.980;8.138;2023-08-17T10:04:16;17.77;;;15.00;;
33993;SDS011;20673;48.980;8.138;2023-08-17T10:06:50;17.23;;;15.08;;
33993;SDS011;20673;48.980;8.138;2023-08-17T10:09:23;18.57;;;14.65;;
33993;SDS011;20673;48.980;8.138;2023-08-17T10:11:54;20.30;;;15.18;;
33993;SDS011;20673;48.980;8.138;2023-08-17T10:14:31;17.10;;;15.48;;
33993;SDS011;20673;48.980;8.138;2023-08-17T10:17:04;16.77;;;15.03;;
33993;SDS011;20673;48.980;8.138;2023-08-17T10:25:00;18.45;;;15.78;;
33993;SDS011;20673;48.980;8.138;2023-08-17T10:27:27;17.27;;;15.50;;
33993;SDS011;20673;48.980;8.138;2023-08-17T10:29:54;17.25;;;15.40;;
33993;SDS011;20673;48.980;8.138;2023-08-17T10:32:22;19.37;;;16.50;;
33993;SDS011;20673;48.980;8.138;2023-08-17T10:34:50;18.62;;;16.35;;
33993;SDS011;20673;48.980;8.138;2023-08-17T10:37:18;17.85;;;15.93;;
33993;SDS011;20673;48.980;8.138;2023-08-17T10:39:48;22.15;;;16.00;;
33993;SDS011;20673;48.980;8.138;2023-08-17T10:42:14;17.92;;;15.43;;
33993;SDS011;20673;48.980;8.138;2023-08-17T10:44:46;17.80;;;15.93;;
33993;SDS011;20673;48.980;8.138;2023-08-17T10:47:23;18.90;;;17.02;;
33993;SDS011;20673;48.980;8.138;2023-08-17T10:49:59;19.98;;;17.30;;
33993;SDS011;20673;48.980;8.138;2023-08-17T10:52:35;18.12;;;16.23;;
33993;SDS011;20673;48.980;8.138;2023-08-17T10:55:05;18.45;;;16.60;;
33993;SDS011;20673;48.980;8.138;2023-08-17T10:57:37;18.25;;;16.40;;
33993;SDS011;20673;48.980;8.138;2023-08-17T11:00:13;18.05;;;16.07;;
33993;SDS011;20673;48.980;8.138;2023-08-17T11:02:56;18.65;;;16.75;;
33993;SDS011;20673;48.980;8.138;2023-08-17T11:08:09;19.17;;;17.05;;
33993;SDS011;20673;48.980;8.138;2023-08-17T11:10:41;18.30;;;16.40;;
33993;SDS011;20673;48.980;8.138;2023-08-17T11:13:09;18.02;;;15.80;;
33993;SDS011;20673;48.980;8.138;2023-08-17T11:15:36;18.57;;;15.93;;
33993;SDS011;20673;48.980;8.138;2023-08-17T11:18:08;16.90;;;15.10;;
33993;SDS011;20673;48.980;8.138;2023-08-17T11:20:36;16.50;;;14.85;;
33993;SDS011;20673;48.980;8.138;2023-08-17T11:23:04;16.50;;;14.63;;
33993;SDS011;20673;48.980;8.138;2023-08-17T11:25:32;18.40;;;15.50;;
33993;SDS011;20673;48.980;8.138;2023-08-17T11:27:59;16.85;;;14.80;;
33993;SDS011;20673;48.980;8.138;2023-08-17T11:30:27;18.10;;;16.05;;
33993;SDS011;20673;48.980;8.138;2023-08-17T11:32:55;17.27;;;15.48;;
33993;SDS011;20673;48.980;8.138;2023-08-17T11:35:22;16.25;;;14.60;;
33993;SDS011;20673;48.980;8.138;2023-08-17T11:37:48;16.85;;;14.33;;
33993;SDS011;20673;48.980;8.138;2023-08-17T11:40:15;18.62;;;14.35;;
33993;SDS011;20673;48.980;8.138;2023-08-17T11:42:41;15.53;;;13.93;;
33993;SDS011;20673;48.980;8.138;2023-08-17T11:45:09;15.43;;;13.93;;
33993;SDS011;20673;48.980;8.138;2023-08-17T11:47:36;16.15;;;14.58;;
33993;SDS011;20673;48.980;8.138;2023-08-17T11:50:07;15.23;;;13.72;;
33993;SDS011;20673;48.980;8.138;2023-08-17T11:52:36;15.58;;;13.75;;
33993;SDS011;20673;48.980;8.138;2023-08-17T11:55:03;14.43;;;13.10;;
33993;SDS011;20673;48.980;8.138;2023-08-17T11:57:31;12.93;;;11.63;;
33993;SDS011;20673;48.980;8.138;2023-08-17T11:59:59;13.88;;;12.47;;
33993;SDS011;20673;48.980;8.138;2023-08-17T12:02:29;13.15;;;11.93;;
33993;SDS011;20673;48.980;8.138;2023-08-17T12:04:56;12.90;;;11.38;;
33993;SDS011;20673;48.980;8.138;2023-08-17T12:07:25;13.05;;;11.33;;
33993;SDS011;20673;48.980;8.138;2023-08-17T12:09:52;11.45;;;10.35;;
33993;SDS011;20673;48.980;8.138;2023-08-17T12:12:19;11.60;;;10.50;;
33993;SDS011;20673;48.980;8.138;2023-08-17T12:14:49;11.28;;;10.28;;
33993;SDS011;20673;48.980;8.138;2023-08-17T12:17:21;11.90;;;10.72;;
33993;SDS011;20673;48.980;8.138;2023-08-17T12:19:48;11.40;;;10.20;;
33993;SDS011;20673;48.980;8.138;2023-08-17T12:22:22;9.65;;;8.83;;
33993;SDS011;20673;48.980;8.138;2023-08-17T12:27:18;10.58;;;9.58;;
33993;SDS011;20673;48.980;8.138;2023-08-17T12:29:48;9.83;;;8.78;;
33993;SDS011;20673;48.980;8.138;2023-08-17T12:32:18;10.35;;;9.30;;
33993;SDS011;20673;48.980;8.138;2023-08-17T12:34:46;10.78;;;9.78;;
33993;SDS011;20673;48.980;8.138;2023-08-17T12:37:18;10.03;;;9.03;;
33993;SDS011;20673;48.980;8.138;2023-08-17T12:39:46;9.28;;;8.38;;
33993;SDS011;20673;48.980;8.138;2023-08-17T12:42:14;8.63;;;7.72;;
33993;SDS011;20673;48.980;8.138;2023-08-17T12:44:40;9.80;;;8.88;;
33993;SDS011;20673;48.980;8.138;2023-08-17T12:47:07;9.43;;;8.15;;
33993;SDS011;20673;48.980;8.138;2023-08-17T12:49:33;9.60;;;8.65;;
33993;SDS011;20673;48.980;8.138;2023-08-17T12:51:59;10.15;;;9.15;;
33993;SDS011;20673;48.980;8.138;2023-08-17T12:54:25;10.45;;;9.55;;
33993;SDS011;20673;48.980;8.138;2023-08-17T12:56:51;10.58;;;9.58;;
33993;SDS011;20673;48.980;8.138;2023-08-17T12:59:18;13.25;;;11.85;;
33993;SDS011;20673;48.980;8.138;2023-08-17T13:01:44;12.73;;;11.45;;
33993;SDS011;20673;48.980;8.138;2023-08-17T13:04:10;12.75;;;11.45;;
33993;SDS011;20673;48.980;8.138;2023-08-17T13:06:37;11.18;;;10.18;;
33993;SDS011;20673;48.980;8.138;2023-08-17T13:09:04;12.47;;;11.18;;
33993;SDS011;20673;48.980;8.138;2023-08-17T13:11:31;11.83;;;10.30;;
33993;SDS011;20673;48.980;8.138;2023-08-17T13:13:57;12.58;;;10.60;;
33993;SDS011;20673;48.980;8.138;2023-08-17T13:16:23;12.03;;;10.75;;
33993;SDS011;20673;48.980;8.138;2023-08-17T13:18:49;13.53;;;10.60;;
33993;SDS011;20673;48.980;8.138;2023-08-17T13:21:16;12.70;;;11.60;;
33993;SDS011;20673;48.980;8.138;2023-08-17T13:23:43;13.08;;;11.78;;
33993;SDS011;20673;48.980;8.138;2023-08-17T13:26:10;13.48;;;12.07;;
33993;SDS011;20673;48.980;8.138;2023-08-17T13:28:37;14.40;;;12.20;;
33993;SDS011;20673;48.980;8.138;2023-08-17T13:31:03;13.40;;;12.00;;
33993;SDS011;20673;48.980;8.138;2023-08-17T13:33:29;12.23;;;11.12;;
33993;SDS011;20673;48.980;8.138;2023-08-17T13:35:55;11.78;;;10.68;;
33993;SDS011;20673;48.980;8.138;2023-08-17T13:38:21;11.00;;;9.98;;
33993;SDS011;20673;48.980;8.138;2023-08-17T13:40:47;12.30;;;11.15;;
33993;SDS011;20673;48.980;8.138;2023-08-17T13:43:14;12.15;;;10.95;;
33993;SDS011;20673;48.980;8.138;2023-08-17T13:45:40;12.20;;;11.00;;
33993;SDS011;20673;48.980;8.138;2023-08-17T13:48:07;11.38;;;10.35;;
33993;SDS011;20673;48.980;8.138;2023-08-17T13:50:34;11.15;;;10.15;;
33993;SDS011;20673;48.980;8.138;2023-08-17T13:53:03;12.13;;;10.05;;
33993;SDS011;20673;48.980;8.138;2023-08-17T13:55:29;10.13;;;9.13;;
33993;SDS011;20673;48.980;8.138;2023-08-17T13:57:55;10.98;;;9.83;;
33993;SDS011;20673;48.980;8.138;2023-08-17T14:00:23;10.32;;;9.43;;
33993;SDS011;20673;48.980;8.138;2023-08-17T14:02:52;10.13;;;9.13;;
33993;SDS011;20673;48.980;8.138;2023-08-17T14:05:18;11.28;;;9.40;;
33993;SDS011;20673;48.980;8.138;2023-08-17T14:07:45;10.38;;;9.35;;
33993;SDS011;20673;48.980;8.138;2023-08-17T14:10:11;9.70;;;8.80;;
33993;SDS011;20673;48.980;8.138;2023-08-17T14:12:37;12.30;;;9.13;;
33993;SDS011;20673;48.980;8.138;2023-08-17T14:15:03;9.25;;;8.25;;
33993;SDS011;20673;48.980;8.138;2023-08-17T14:17:30;9.33;;;8.40;;
33993;SDS011;20673;48.980;8.138;2023-08-17T14:19:57;12.37;;;8.85;;
33993;SDS011;20673;48.980;8.138;2023-08-17T14:22:23;9.50;;;8.63;;
33993;SDS011;20673;48.980;8.138;2023-08-17T14:24:50;11.45;;;9.20;;
33993;SDS011;20673;48.980;8.138;2023-08-17T14:27:16;10.18;;;9.20;;
33993;SDS011;20673;48.980;8.138;2023-08-17T14:29:42;9.83;;;8.88;;
33993;SDS011;20673;48.980;8.138;2023-08-17T14:32:08;11.12;;;8.98;;
33993;SDS011;20673;48.980;8.138;2023-08-17T14:34:35;9.28;;;8.28;;
33993;SDS011;20673;48.980;8.138;2023-08-17T14:37:01;9.68;;;8.78;;
33993;SDS011;20673;48.980;8.138;2023-08-17T14:39:27;11.90;;;10.35;;
33993;SDS011;20673;48.980;8.138;2023-08-17T14:41:54;11.12;;;9.95;;
33993;SDS011;20673;48.980;8.138;2023-08-17T14:44:20;10.32;;;9.33;;
33993;SDS011;20673;48.980;8.138;2023-08-17T14:46:46;12.23;;;9.18;;
33993;SDS011;20673;48.980;8.138;2023-08-17T14:49:12;11.10;;;9.58;;
33993;SDS011;20673;48.980;8.138;2023-08-17T14:51:39;10.80;;;9.70;;